createdAt,value
2018-04-27T00:02:20.749Z,8.72
2018-04-27T00:04:46.519Z,8.74
2018-04-27T00:07:12.269Z,8.74
2018-04-27T00:09:38.057Z,8.73
2018-04-27T00:12:03.824Z,8.70
2018-04-27T00:14:29.592Z,8.72
2018-04-27T00:16:55.341Z,8.69
2018-04-27T00:19:21.130Z,8.71
2018-04-27T00:21:46.894Z,8.70
2018-04-27T00:24:12.709Z,8.70
2018-04-27T00:26:38.464Z,8.65
2018-04-27T00:29:04.278Z,8.65
2018-04-27T00:31:30.028Z,8.62
2018-04-27T00:33:55.828Z,8.65
2018-04-27T00:36:21.584Z,8.66
2018-04-27T00:38:47.355Z,8.66
2018-04-27T00:41:13.108Z,8.59
2018-04-27T00:43:38.898Z,8.62
2018-04-27T00:46:04.639Z,8.60
2018-04-27T00:48:30.410Z,8.56
2018-04-27T00:50:56.199Z,8.52
2018-04-27T00:53:22.221Z,8.51
2018-04-27T00:55:47.996Z,8.56
2018-04-27T00:58:13.735Z,8.61
2018-04-27T01:00:39.542Z,8.66
2018-04-27T01:03:05.297Z,8.68
2018-04-27T01:05:31.087Z,8.71
2018-04-27T01:07:56.872Z,8.74
2018-04-27T01:10:22.630Z,8.78
2018-04-27T01:12:48.390Z,8.83
2018-04-27T01:15:14.211Z,8.86
2018-04-27T01:17:39.975Z,8.89
2018-04-27T01:20:05.737Z,8.97
2018-04-27T01:22:31.480Z,9.04
2018-04-27T01:24:57.272Z,9.07
2018-04-27T01:27:23.049Z,9.14
2018-04-27T01:29:48.861Z,9.18
2018-04-27T01:32:14.620Z,9.23
2018-04-27T01:34:40.552Z,9.27
2018-04-27T01:37:06.322Z,9.22
2018-04-27T01:39:38.145Z,9.25
2018-04-27T01:42:03.966Z,9.27
2018-04-27T01:44:29.744Z,9.29
2018-04-27T01:46:55.551Z,9.30
2018-04-27T01:49:21.276Z,9.28
2018-04-27T01:51:47.031Z,9.18
2018-04-27T01:54:12.789Z,9.20
2018-04-27T01:56:38.579Z,9.14
2018-04-27T01:59:04.343Z,9.08
2018-04-27T02:01:30.157Z,9.01
2018-04-27T02:03:55.907Z,8.96
2018-04-27T02:06:21.684Z,8.93
2018-04-27T02:08:47.441Z,8.88
2018-04-27T02:11:13.220Z,8.83
2018-04-27T02:13:38.959Z,8.82
2018-04-27T02:16:04.752Z,8.78
2018-04-27T02:18:30.639Z,8.74
2018-04-27T02:20:56.507Z,8.74
2018-04-27T02:23:22.273Z,8.69
2018-04-27T02:25:48.068Z,8.67
2018-04-27T02:28:13.819Z,8.63
2018-04-27T02:30:39.641Z,8.61
2018-04-27T02:33:05.395Z,8.60
2018-04-27T02:35:31.167Z,8.53
2018-04-27T02:37:56.928Z,8.51
2018-04-27T02:40:22.683Z,8.44
2018-04-27T02:42:48.460Z,8.41
2018-04-27T02:45:14.219Z,8.40
2018-04-27T02:47:39.975Z,8.40
2018-04-27T02:53:01.264Z,8.33
2018-04-27T02:55:27.081Z,8.32
2018-04-27T02:57:52.898Z,8.26
2018-04-27T03:00:18.682Z,8.22
2018-04-27T03:02:44.465Z,8.30
2018-04-27T03:05:10.257Z,8.30
2018-04-27T03:07:36.024Z,8.29
2018-04-27T03:10:01.781Z,8.35
2018-04-27T03:12:27.573Z,8.40
2018-04-27T03:14:53.411Z,8.44
2018-04-27T03:17:19.170Z,8.46
2018-04-27T03:19:44.920Z,8.51
2018-04-27T03:22:10.719Z,8.54
2018-04-27T03:24:36.475Z,8.60
2018-04-27T03:27:02.284Z,8.62
2018-04-27T03:29:28.047Z,8.64
2018-04-27T03:31:53.832Z,8.68
2018-04-27T03:34:19.659Z,8.69
2018-04-27T03:36:45.372Z,8.68
2018-04-27T03:39:11.119Z,8.73
2018-04-27T03:41:36.910Z,8.74
2018-04-27T03:44:03.671Z,8.74
2018-04-27T03:46:29.457Z,8.76
2018-04-27T03:48:55.208Z,8.75
2018-04-27T03:51:21.360Z,8.74
2018-04-27T03:53:47.131Z,8.63
2018-04-27T03:56:12.903Z,8.60
2018-04-27T03:58:38.663Z,8.55
2018-04-27T04:01:16.877Z,8.57
2018-04-27T04:03:55.003Z,8.55
2018-04-27T04:06:20.760Z,8.57
2018-04-27T04:08:46.503Z,8.61
2018-04-27T04:11:12.274Z,8.67
2018-04-27T04:13:38.048Z,8.69
2018-04-27T04:16:03.817Z,8.71
2018-04-27T04:18:29.677Z,8.80
2018-04-27T04:20:55.455Z,8.87
2018-04-27T04:23:21.228Z,8.95
2018-04-27T04:25:47.011Z,9.01
2018-04-27T04:28:12.779Z,8.97
2018-04-27T04:30:38.560Z,8.98
2018-04-27T04:33:04.291Z,9.04
2018-04-27T04:35:30.071Z,9.03
2018-04-27T04:37:55.838Z,9.10
2018-04-27T04:40:21.624Z,9.17
2018-04-27T04:42:47.439Z,9.27
2018-04-27T04:45:13.221Z,9.33
2018-04-27T04:47:39.004Z,9.43
2018-04-27T04:50:04.766Z,9.55
2018-04-27T04:52:30.661Z,9.65
2018-04-27T04:54:56.358Z,9.72
2018-04-27T04:57:22.324Z,9.76
2018-04-27T04:59:48.074Z,9.81
2018-04-27T05:02:13.875Z,9.68
2018-04-27T05:04:39.628Z,9.65
2018-04-27T05:07:05.459Z,9.58
2018-04-27T05:09:31.214Z,9.53
2018-04-27T05:11:57.002Z,9.50
2018-04-27T05:14:22.743Z,9.51
2018-04-27T05:16:48.531Z,9.55
2018-04-27T05:19:14.307Z,9.62
2018-04-27T05:21:40.115Z,9.68
2018-04-27T05:24:05.910Z,9.76
2018-04-27T05:26:31.693Z,9.80
2018-04-27T05:28:57.453Z,9.83
2018-04-27T05:31:23.265Z,9.86
2018-04-27T05:33:49.063Z,9.92
2018-04-27T05:36:14.830Z,9.96
2018-04-27T05:38:40.609Z,9.99
2018-04-27T05:41:06.415Z,10.03
2018-04-27T05:43:32.236Z,10.06
2018-04-27T05:45:58.042Z,9.98
2018-04-27T05:48:24.074Z,10.00
2018-04-27T05:50:49.795Z,10.04
2018-04-27T05:53:15.587Z,10.05
2018-04-27T05:55:41.373Z,10.12
2018-04-27T05:58:07.563Z,10.23
2018-04-27T06:00:33.339Z,10.31
2018-04-27T06:02:59.100Z,10.38
2018-04-27T06:05:25.739Z,10.47
2018-04-27T06:07:51.547Z,10.60
2018-04-27T06:10:17.303Z,10.75
2018-04-27T06:12:43.091Z,10.89
2018-04-27T06:15:08.827Z,10.98
2018-04-27T06:17:34.618Z,11.11
2018-04-27T06:20:00.395Z,11.14
2018-04-27T06:22:26.215Z,11.23
2018-04-27T06:24:51.988Z,11.32
2018-04-27T06:27:17.779Z,11.39
2018-04-27T06:29:43.591Z,11.42
2018-04-27T06:32:09.402Z,11.53
2018-04-27T06:34:35.176Z,11.61
2018-04-27T06:37:01.023Z,11.67
2018-04-27T06:39:26.911Z,11.72
2018-04-27T06:41:52.656Z,11.82
2018-04-27T06:44:18.420Z,11.92
2018-04-27T06:46:44.231Z,11.98
2018-04-27T06:49:10.007Z,11.96
2018-04-27T06:51:35.823Z,11.99
2018-04-27T06:54:01.674Z,12.09
2018-04-27T06:56:27.461Z,12.11
2018-04-27T06:58:53.262Z,12.17
2018-04-27T07:01:19.044Z,12.18
2018-04-27T07:03:44.827Z,12.22
2018-04-27T07:06:10.594Z,12.29
2018-04-27T07:08:36.392Z,12.36
2018-04-27T07:11:02.165Z,12.42
2018-04-27T07:13:28.526Z,12.49
2018-04-27T07:15:54.315Z,12.59
2018-04-27T07:18:20.075Z,12.63
2018-04-27T07:20:45.880Z,12.73
2018-04-27T07:23:11.696Z,12.87
2018-04-27T07:25:37.490Z,13.00
2018-04-27T07:28:03.273Z,13.08
2018-04-27T07:30:29.072Z,13.21
2018-04-27T07:32:54.831Z,13.30
2018-04-27T07:35:20.641Z,13.33
2018-04-27T07:37:46.406Z,13.41
2018-04-27T07:40:12.269Z,13.44
2018-04-27T07:42:38.015Z,13.50
2018-04-27T07:45:03.801Z,13.52
2018-04-27T07:47:29.583Z,13.52
2018-04-27T07:49:55.352Z,13.55
2018-04-27T07:52:28.168Z,13.56
2018-04-27T07:54:53.958Z,13.66
2018-04-27T07:57:19.804Z,13.81
2018-04-27T07:59:45.583Z,13.87
2018-04-27T08:02:11.397Z,13.95
2018-04-27T08:04:37.139Z,14.01
2018-04-27T08:07:02.919Z,14.12
2018-04-27T08:09:28.695Z,14.24
2018-04-27T08:11:54.473Z,14.35
2018-04-27T08:14:20.267Z,14.37
2018-04-27T08:16:46.076Z,14.45
2018-04-27T08:19:11.838Z,14.46
2018-04-27T08:21:37.668Z,14.56
2018-04-27T08:24:03.443Z,14.63
2018-04-27T08:26:29.226Z,14.68
2018-04-27T08:28:54.998Z,14.63
2018-04-27T08:31:20.800Z,14.61
2018-04-27T08:33:46.575Z,14.62
2018-04-27T08:36:12.387Z,14.65
2018-04-27T08:38:38.078Z,14.68
2018-04-27T08:41:03.871Z,14.74
2018-04-27T08:43:29.691Z,14.80
2018-04-27T08:45:55.471Z,14.89
2018-04-27T08:48:21.227Z,14.95
2018-04-27T08:50:47.028Z,15.07
2018-04-27T08:53:12.816Z,15.14
2018-04-27T08:55:38.923Z,15.27
2018-04-27T08:58:04.813Z,15.35
2018-04-27T09:00:30.615Z,15.48
2018-04-27T09:02:56.385Z,15.74
2018-04-27T09:05:22.132Z,16.09
2018-04-27T09:07:47.911Z,16.33
2018-04-27T09:10:13.679Z,16.56
2018-04-27T09:12:39.451Z,16.66
2018-04-27T09:15:05.208Z,16.55
2018-04-27T09:17:30.980Z,16.36
2018-04-27T09:19:56.801Z,16.37
2018-04-27T09:22:22.635Z,16.41
2018-04-27T09:24:48.415Z,16.51
2018-04-27T09:27:14.443Z,16.67
2018-04-27T09:29:40.206Z,16.76
2018-04-27T09:32:06.000Z,17.01
2018-04-27T09:34:31.759Z,17.02
2018-04-27T09:36:57.543Z,17.19
2018-04-27T09:39:23.331Z,17.48
2018-04-27T09:41:49.091Z,17.57
2018-04-27T09:44:14.868Z,17.77
2018-04-27T09:46:40.631Z,17.92
2018-04-27T09:49:06.435Z,18.04
2018-04-27T09:51:32.260Z,18.22
2018-04-27T09:53:58.011Z,18.29
2018-04-27T09:56:23.813Z,18.24
2018-04-27T09:58:49.624Z,18.18
2018-04-27T10:01:15.422Z,18.13
2018-04-27T10:03:41.221Z,18.16
2018-04-27T10:06:06.984Z,18.31
2018-04-27T10:08:32.735Z,18.14
2018-04-27T10:10:58.501Z,18.24
2018-04-27T10:13:24.319Z,18.38
2018-04-27T10:15:50.075Z,18.57
2018-04-27T10:18:15.862Z,18.63
2018-04-27T10:20:41.623Z,18.59
2018-04-27T10:23:07.449Z,18.73
2018-04-27T10:25:33.235Z,18.63
2018-04-27T10:27:59.126Z,18.73
2018-04-27T10:30:24.891Z,18.92
2018-04-27T10:32:50.668Z,19.08
2018-04-27T10:35:16.477Z,19.14
2018-04-27T10:37:42.279Z,19.29
2018-04-27T10:40:08.103Z,19.36
2018-04-27T10:42:33.871Z,19.33
2018-04-27T10:44:59.661Z,19.27
2018-04-27T10:47:25.452Z,19.31
2018-04-27T10:49:51.256Z,19.43
2018-04-27T10:52:17.042Z,19.57
2018-04-27T10:54:43.036Z,19.84
2018-04-27T10:57:08.853Z,19.97
2018-04-27T10:59:34.631Z,19.93
2018-04-27T11:02:00.407Z,20.02
2018-04-27T11:04:26.207Z,19.99
2018-04-27T11:06:53.011Z,19.85
2018-04-27T11:09:18.792Z,19.72
2018-04-27T11:11:44.597Z,19.56
2018-04-27T11:14:10.368Z,19.38
2018-04-27T11:16:36.150Z,19.26
2018-04-27T11:19:01.980Z,19.30
2018-04-27T11:21:27.744Z,19.32
2018-04-27T11:23:53.510Z,19.24
2018-04-27T11:26:19.432Z,19.21
2018-04-27T11:28:52.011Z,19.24
2018-04-27T11:31:17.775Z,19.30
2018-04-27T11:33:43.618Z,19.44
2018-04-27T11:36:09.344Z,19.48
2018-04-27T11:38:35.125Z,19.60
2018-04-27T11:41:00.887Z,19.77
2018-04-27T11:43:26.672Z,19.62
2018-04-27T11:45:52.444Z,19.54
2018-04-27T11:48:18.304Z,19.57
2018-04-27T11:50:44.024Z,19.55
2018-04-27T11:53:09.808Z,19.55
2018-04-27T11:55:35.663Z,19.57
2018-04-27T11:58:01.468Z,19.46
2018-04-27T12:00:27.242Z,19.43
2018-04-27T12:02:53.038Z,19.51
2018-04-27T12:05:18.797Z,19.59
2018-04-27T12:07:44.583Z,19.71
2018-04-27T12:10:10.364Z,19.82
2018-04-27T12:12:36.172Z,19.86
2018-04-27T12:15:01.967Z,20.00
2018-04-27T12:17:27.732Z,20.10
2018-04-27T12:19:53.507Z,20.25
2018-04-27T12:22:19.259Z,20.22
2018-04-27T12:24:45.032Z,20.16
2018-04-27T12:27:10.826Z,20.22
2018-04-27T12:29:36.583Z,20.19
2018-04-27T12:32:02.351Z,20.28
2018-04-27T12:34:28.126Z,20.33
2018-04-27T12:36:53.885Z,20.27
2018-04-27T12:39:19.744Z,20.27
2018-04-27T12:41:45.524Z,20.17
2018-04-27T12:44:11.316Z,20.10
2018-04-27T12:46:37.084Z,20.07
2018-04-27T12:49:02.856Z,20.03
2018-04-27T12:51:28.620Z,20.19
2018-04-27T12:53:54.429Z,20.25
2018-04-27T12:56:20.187Z,20.48
2018-04-27T12:58:45.943Z,20.64
2018-04-27T13:01:11.711Z,20.65
2018-04-27T13:03:37.491Z,20.57
2018-04-27T13:06:03.251Z,20.38
2018-04-27T13:08:29.044Z,20.17
2018-04-27T13:10:54.812Z,20.19
2018-04-27T13:13:20.636Z,20.34
2018-04-27T13:15:46.427Z,20.60
2018-04-27T13:18:12.192Z,20.86
2018-04-27T13:20:38.040Z,21.04
2018-04-27T13:23:03.796Z,21.08
2018-04-27T13:25:29.575Z,21.03
2018-04-27T13:27:55.614Z,21.08
2018-04-27T13:30:21.406Z,21.06
2018-04-27T13:32:47.151Z,21.13
2018-04-27T13:35:12.951Z,21.07
2018-04-27T13:37:38.737Z,20.96
2018-04-27T13:40:04.557Z,20.87
2018-04-27T13:42:30.323Z,20.82
2018-04-27T13:44:56.128Z,20.79
2018-04-27T13:47:21.921Z,20.84
2018-04-27T13:49:47.682Z,20.71
2018-04-27T13:52:13.454Z,20.75
2018-04-27T13:54:39.227Z,20.81
2018-04-27T13:57:05.279Z,20.86
2018-04-27T13:59:31.139Z,20.89
2018-04-27T14:01:56.918Z,20.72
2018-04-27T14:04:22.707Z,20.62
2018-04-27T14:06:48.498Z,20.39
2018-04-27T14:09:14.310Z,20.39
2018-04-27T14:11:40.099Z,20.30
2018-04-27T14:14:05.903Z,20.30
2018-04-27T14:16:31.676Z,20.29
2018-04-27T14:18:57.509Z,20.53
2018-04-27T14:21:23.356Z,20.69
2018-04-27T14:23:49.087Z,20.86
2018-04-27T14:26:14.887Z,20.98
2018-04-27T14:28:40.676Z,21.05
2018-04-27T14:31:06.479Z,21.01
2018-04-27T14:33:32.241Z,20.95
2018-04-27T14:35:58.023Z,20.95
2018-04-27T14:38:23.779Z,20.71
2018-04-27T14:40:49.562Z,20.53
2018-04-27T14:43:15.315Z,20.37
2018-04-27T14:45:41.156Z,20.07
2018-04-27T14:48:06.940Z,19.84
2018-04-27T14:50:32.982Z,19.80
2018-04-27T14:52:58.768Z,19.95
2018-04-27T14:55:24.531Z,20.19
2018-04-27T14:57:50.472Z,20.47
2018-04-27T15:00:16.566Z,20.71
2018-04-27T15:02:42.416Z,20.73
2018-04-27T15:05:08.174Z,20.69
2018-04-27T15:07:33.973Z,20.38
2018-04-27T15:09:59.727Z,20.25
2018-04-27T15:12:25.513Z,20.24
2018-04-27T15:14:51.303Z,20.08
2018-04-27T15:17:17.059Z,20.04
2018-04-27T15:19:42.811Z,20.03
2018-04-27T15:22:08.586Z,20.04
2018-04-27T15:24:34.350Z,20.01
2018-04-27T15:27:00.164Z,20.02
2018-04-27T15:29:25.939Z,20.08
2018-04-27T15:31:51.719Z,20.08
2018-04-27T15:34:17.727Z,20.06
2018-04-27T15:36:43.515Z,20.01
2018-04-27T15:39:09.330Z,19.94
2018-04-27T15:41:35.076Z,19.79
2018-04-27T15:44:00.885Z,19.73
2018-04-27T15:46:26.683Z,19.65
2018-04-27T15:48:52.495Z,19.62
2018-04-27T15:51:18.279Z,19.60
2018-04-27T15:53:44.056Z,19.76
2018-04-27T15:56:09.845Z,19.91
2018-04-27T15:58:35.668Z,19.90
2018-04-27T16:01:01.464Z,19.78
2018-04-27T16:03:27.247Z,19.72
2018-04-27T16:05:53.032Z,19.65
2018-04-27T16:08:18.845Z,19.44
2018-04-27T16:10:44.644Z,19.30
2018-04-27T16:16:14.124Z,18.97
2018-04-27T16:18:39.908Z,18.85
2018-04-27T16:21:05.712Z,18.76
2018-04-27T16:23:31.524Z,18.70
2018-04-27T16:25:57.361Z,18.67
2018-04-27T16:28:23.143Z,18.62
2018-04-27T16:30:48.977Z,18.59
2018-04-27T16:33:14.787Z,18.61
2018-04-27T16:35:40.547Z,18.60
2018-04-27T16:38:06.337Z,18.60
2018-04-27T16:40:32.124Z,18.62
2018-04-27T16:42:57.904Z,18.64
2018-04-27T16:45:23.676Z,18.65
2018-04-27T16:47:49.459Z,18.60
2018-04-27T16:50:15.230Z,18.55
2018-04-27T16:52:41.032Z,18.48
2018-04-27T16:55:06.867Z,18.42
2018-04-27T16:57:32.650Z,18.36
2018-04-27T16:59:58.413Z,18.37
2018-04-27T17:02:24.163Z,18.37
2018-04-27T17:04:49.937Z,18.34
2018-04-27T17:07:15.727Z,18.26
2018-04-27T17:09:41.527Z,18.17
2018-04-27T17:12:07.312Z,18.10
2018-04-27T17:14:33.098Z,18.03
2018-04-27T17:16:58.871Z,18.06
2018-04-27T17:19:24.845Z,18.20
2018-04-27T17:21:50.590Z,18.34
2018-04-27T17:24:16.368Z,18.38
2018-04-27T17:26:42.144Z,18.38
2018-04-27T17:29:07.927Z,18.37
2018-04-27T17:31:33.771Z,18.32
2018-04-27T17:33:59.531Z,18.28
2018-04-27T17:36:25.313Z,18.22
2018-04-27T17:38:51.143Z,18.18
2018-04-27T17:41:17.013Z,18.11
2018-04-27T17:43:42.811Z,18.08
2018-04-27T17:46:08.568Z,18.07
2018-04-27T17:48:34.368Z,18.08
2018-04-27T17:51:00.132Z,18.09
2018-04-27T17:53:25.997Z,18.12
2018-04-27T17:55:51.761Z,18.11
2018-04-27T17:58:17.627Z,18.05
2018-04-27T18:00:43.407Z,17.99
2018-04-27T18:03:09.191Z,17.92
2018-04-27T18:05:34.966Z,17.84
2018-04-27T18:08:00.746Z,17.78
2018-04-27T18:10:26.678Z,17.65
2018-04-27T18:12:52.487Z,17.50
2018-04-27T18:15:18.289Z,17.42
2018-04-27T18:17:44.151Z,17.41
2018-04-27T18:20:09.909Z,17.41
2018-04-27T18:22:35.955Z,17.36
2018-04-27T18:25:01.773Z,17.29
2018-04-27T18:27:27.535Z,17.18
2018-04-27T18:29:53.356Z,17.08
2018-04-27T18:32:19.113Z,17.00
2018-04-27T18:34:44.879Z,16.92
2018-04-27T18:37:10.671Z,16.81
2018-04-27T18:39:37.631Z,16.73
2018-04-27T18:42:03.410Z,16.63
2018-04-27T18:44:29.283Z,16.58
2018-04-27T18:46:55.069Z,16.51
2018-04-27T18:49:20.860Z,16.40
2018-04-27T18:51:46.654Z,16.27
2018-04-27T18:54:12.451Z,16.15
2018-04-27T18:56:38.223Z,16.10
2018-04-27T18:59:04.037Z,16.03
2018-04-27T19:01:29.823Z,15.95
2018-04-27T19:03:55.631Z,15.90
2018-04-27T19:06:23.392Z,15.88
2018-04-27T19:08:49.236Z,15.88
2018-04-27T19:11:14.987Z,15.85
2018-04-27T19:13:40.743Z,15.80
2018-04-27T19:16:06.588Z,15.81
2018-04-27T19:18:32.355Z,15.78
2018-04-27T19:20:58.505Z,15.70
2018-04-27T19:23:25.190Z,15.62
2018-04-27T19:25:50.968Z,15.57
2018-04-27T19:28:17.608Z,15.48
2018-04-27T19:30:43.427Z,15.42
2018-04-27T19:33:09.313Z,15.37
2018-04-27T19:35:35.079Z,15.32
2018-04-27T19:38:00.860Z,15.28
2018-04-27T19:40:26.647Z,15.25
2018-04-27T19:42:52.447Z,15.23
2018-04-27T19:45:18.195Z,15.27
2018-04-27T19:47:43.955Z,15.30
2018-04-27T19:50:09.727Z,15.27
2018-04-27T19:52:35.491Z,15.25
2018-04-27T19:55:01.521Z,15.23
2018-04-27T19:57:27.314Z,15.16
2018-04-27T19:59:53.099Z,15.07
2018-04-27T20:02:18.867Z,14.91
2018-04-27T20:04:44.734Z,14.84
2018-04-27T20:07:10.601Z,14.84
2018-04-27T20:09:36.460Z,14.71
2018-04-27T20:12:02.272Z,14.75
2018-04-27T20:14:32.803Z,14.79
2018-04-27T20:16:59.551Z,14.78
2018-04-27T20:19:25.338Z,14.79
2018-04-27T20:21:51.135Z,14.84
2018-04-27T20:24:16.942Z,14.86
2018-04-27T20:26:42.690Z,14.90
2018-04-27T20:29:08.804Z,14.91
2018-04-27T20:31:34.665Z,14.87
2018-04-27T20:34:00.460Z,14.86
2018-04-27T20:36:26.259Z,14.86
2018-04-27T20:38:52.004Z,14.81
2018-04-27T20:41:17.773Z,14.74
2018-04-27T20:43:43.608Z,14.72
2018-04-27T20:46:09.415Z,14.68
2018-04-27T20:48:35.184Z,14.64
2018-04-27T20:51:01.913Z,14.59
2018-04-27T20:53:29.588Z,14.52
2018-04-27T20:56:01.617Z,14.48
2018-04-27T20:58:27.391Z,14.47
2018-04-27T21:00:53.196Z,14.48
2018-04-27T21:03:18.966Z,14.45
2018-04-27T21:05:44.750Z,14.45
2018-04-27T21:08:10.528Z,14.45
2018-04-27T21:10:36.287Z,14.42
2018-04-27T21:13:03.976Z,14.39
2018-04-27T21:15:29.788Z,14.34
2018-04-27T21:17:55.608Z,14.30
2018-04-27T21:20:21.378Z,14.27
2018-04-27T21:22:48.164Z,14.25
2018-04-27T21:25:13.956Z,14.21
2018-04-27T21:27:40.588Z,14.14
2018-04-27T21:30:06.454Z,14.05
2018-04-27T21:32:32.162Z,13.96
2018-04-27T21:34:57.928Z,13.89
2018-04-27T21:37:23.716Z,13.83
2018-04-27T21:39:49.500Z,13.80
2018-04-27T21:42:15.283Z,13.80
2018-04-27T21:44:41.036Z,13.79
2018-04-27T21:47:06.815Z,13.79
2018-04-27T21:49:32.563Z,13.74
2018-04-27T21:51:58.343Z,13.75
2018-04-27T21:54:24.103Z,13.70
2018-04-27T21:56:56.811Z,13.65
2018-04-27T21:59:29.504Z,13.65
2018-04-27T22:01:55.458Z,13.60
2018-04-27T22:04:21.231Z,13.54
2018-04-27T22:06:47.047Z,13.45
2018-04-27T22:09:12.828Z,13.35
2018-04-27T22:11:46.691Z,13.24
2018-04-27T22:14:16.243Z,13.14
2018-04-27T22:16:42.044Z,13.09
2018-04-27T22:19:09.639Z,12.99
2018-04-27T22:21:37.479Z,12.92
2018-04-27T22:24:13.228Z,12.86
2018-04-27T22:26:39.020Z,12.77
2018-04-27T22:29:05.851Z,12.70
2018-04-27T22:31:31.627Z,12.64
2018-04-27T22:33:58.307Z,12.60
2018-04-27T22:36:25.057Z,12.56
2018-04-27T22:41:56.143Z,12.47
2018-04-27T22:44:21.915Z,12.47
2018-04-27T22:46:47.704Z,12.48
2018-04-27T22:49:14.281Z,12.47
2018-04-27T22:51:40.911Z,12.48
2018-04-27T22:54:06.744Z,12.41
2018-04-27T22:59:29.851Z,12.28
2018-04-27T23:01:58.467Z,12.29
2018-04-27T23:04:24.227Z,12.30
2018-04-27T23:06:50.007Z,12.29
2018-04-27T23:09:15.771Z,12.28
2018-04-27T23:11:41.559Z,12.28
2018-04-27T23:14:10.290Z,12.28
2018-04-27T23:16:36.087Z,12.23
2018-04-27T23:19:01.851Z,12.22
2018-04-27T23:24:32.980Z,12.19
2018-04-27T23:26:59.747Z,12.20
2018-04-27T23:29:25.547Z,12.25
2018-04-27T23:31:51.312Z,12.31
2018-04-27T23:34:18.939Z,12.36
2018-04-27T23:36:44.763Z,12.42
2018-04-27T23:39:10.539Z,12.47
2018-04-27T23:41:36.323Z,12.52
2018-04-27T23:44:02.115Z,12.55
2018-04-27T23:46:28.101Z,12.57
2018-04-27T23:48:53.895Z,12.61
2018-04-27T23:51:19.661Z,12.64
2018-04-27T23:53:45.426Z,12.68
2018-04-27T23:56:11.186Z,12.72
2018-04-27T23:58:36.963Z,12.73
